Terminal Aerodrome Forecast
Issued by NWS

Home | Current Version | Previous Version | Text Only | Print | Product List | Glossary Off
Versions: 1 2 3 4 5 6 7 8 9 10 11 12

000
FTUS43 KOAX 210500
TAFCDR
TAF
KCDR 210520Z 2106/2206 VRB03KT P6SM BKN150
     FM211800 VRB06KT P6SM SCT200
     FM220000 13008KT P6SM SCT150=

USA.gov is the U.S. government's official web portal to all federal, state and local government web resources and services.